LPLA METAR and TAF weather

Enter ICAO airport designator
Station Type Date Time Source
LPLA METAR 2022/01/25 04:00 UTC NOAA

LPLA 250400Z /////KT 9999 FEW025 11/11 Q1034


Station Type Date Time Source
LPLA Decoded METAR 2022/01/25 04:00 UTC NOAA

Lajes Acores , Portugal (LPLA) 38-46N 027-06W 54M
Jan 24, 2022 - 11:00 PM EST / 2022.01.25 0400 UTC
Visibility: greater than 7 mile(s):0
Sky conditions: mostly clear
Temperature: 51 F (11 C)
Dew Point: 51 F (11 C)
Relative Humidity: 100%
Pressure (altimeter): 30.53 in. Hg (1034 hPa)
ob: LPLA 250400Z /////KT 9999 FEW025 11/11 Q1034
cycle: 4

Station Type Date Time Source
LPLA TAF 2022/01/24 18:18 UTC NOAA

TAF LPLA 241701Z 2418/2518 VRB05KT 9999 FEW025 SCT040

Example: see airport list